sensor_id;sensor_type;location;lat;lon;timestamp;P1;durP1;ratioP1;P2;durP2;ratioP2
42632;SDS011;28261;53.304;-6.284;2023-11-18T00:01:41;0.25;;;0.25;;
42632;SDS011;28261;53.304;-6.284;2023-11-18T00:03:47;0.20;;;0.20;;
42632;SDS011;28261;53.304;-6.284;2023-11-18T00:05:50;0.82;;;0.40;;
42632;SDS011;28261;53.304;-6.284;2023-11-18T00:07:54;2.95;;;1.10;;
42632;SDS011;28261;53.304;-6.284;2023-11-18T00:09:58;4.68;;;3.20;;
42632;SDS011;28261;53.304;-6.284;2023-11-18T00:12:02;0.30;;;0.30;;
42632;SDS011;28261;53.304;-6.284;2023-11-18T00:14:07;0.28;;;0.28;;
42632;SDS011;28261;53.304;-6.284;2023-11-18T00:16:12;0.35;;;0.22;;
42632;SDS011;28261;53.304;-6.284;2023-11-18T00:18:17;0.22;;;0.22;;
42632;SDS011;28261;53.304;-6.284;2023-11-18T00:20:22;0.70;;;0.70;;
42632;SDS011;28261;53.304;-6.284;2023-11-18T00:22:26;0.80;;;0.30;;
42632;SDS011;28261;53.304;-6.284;2023-11-18T00:24:30;0.22;;;0.22;;
42632;SDS011;28261;53.304;-6.284;2023-11-18T00:26:36;0.73;;;0.50;;
42632;SDS011;28261;53.304;-6.284;2023-11-18T00:28:41;0.40;;;0.32;;
42632;SDS011;28261;53.304;-6.284;2023-11-18T00:30:44;3.55;;;1.10;;
42632;SDS011;28261;53.304;-6.284;2023-11-18T00:32:48;0.80;;;0.55;;
42632;SDS011;28261;53.304;-6.284;2023-11-18T00:34:51;2.25;;;1.42;;
42632;SDS011;28261;53.304;-6.284;2023-11-18T00:36:57;1.65;;;1.23;;
42632;SDS011;28261;53.304;-6.284;2023-11-18T00:39:01;1.25;;;1.15;;
42632;SDS011;28261;53.304;-6.284;2023-11-18T00:41:07;2.45;;;2.25;;
42632;SDS011;28261;53.304;-6.284;2023-11-18T00:43:11;2.10;;;1.90;;
42632;SDS011;28261;53.304;-6.284;2023-11-18T00:45:15;1.70;;;0.60;;
42632;SDS011;28261;53.304;-6.284;2023-11-18T00:47:20;0.70;;;0.70;;
42632;SDS011;28261;53.304;-6.284;2023-11-18T00:49:25;1.35;;;0.90;;
42632;SDS011;28261;53.304;-6.284;2023-11-18T00:51:29;0.70;;;0.40;;
42632;SDS011;28261;53.304;-6.284;2023-11-18T00:53:34;1.13;;;0.75;;
42632;SDS011;28261;53.304;-6.284;2023-11-18T00:55:38;0.60;;;0.38;;
42632;SDS011;28261;53.304;-6.284;2023-11-18T00:57:43;0.43;;;0.28;;
42632;SDS011;28261;53.304;-6.284;2023-11-18T00:59:46;0.32;;;0.32;;
42632;SDS011;28261;53.304;-6.284;2023-11-18T01:01:50;1.33;;;0.50;;
42632;SDS011;28261;53.304;-6.284;2023-11-18T01:03:54;1.15;;;0.43;;
42632;SDS011;28261;53.304;-6.284;2023-11-18T01:06:01;0.50;;;0.40;;
42632;SDS011;28261;53.304;-6.284;2023-11-18T01:08:04;0.30;;;0.30;;
42632;SDS011;28261;53.304;-6.284;2023-11-18T01:10:10;0.82;;;0.50;;
42632;SDS011;28261;53.304;-6.284;2023-11-18T01:12:13;0.10;;;0.10;;
42632;SDS011;28261;53.304;-6.284;2023-11-18T01:14:17;0.40;;;0.40;;
42632;SDS011;28261;53.304;-6.284;2023-11-18T01:16:21;0.20;;;0.20;;
42632;SDS011;28261;53.304;-6.284;2023-11-18T01:18:26;0.47;;;0.43;;
42632;SDS011;28261;53.304;-6.284;2023-11-18T01:20:31;0.88;;;0.32;;
42632;SDS011;28261;53.304;-6.284;2023-11-18T01:22:34;0.82;;;0.40;;
42632;SDS011;28261;53.304;-6.284;2023-11-18T01:24:38;0.40;;;0.30;;
42632;SDS011;28261;53.304;-6.284;2023-11-18T01:26:44;0.80;;;0.80;;
42632;SDS011;28261;53.304;-6.284;2023-11-18T01:28:48;0.32;;;0.32;;
42632;SDS011;28261;53.304;-6.284;2023-11-18T01:30:52;1.05;;;0.60;;
42632;SDS011;28261;53.304;-6.284;2023-11-18T01:32:56;1.13;;;0.68;;
42632;SDS011;28261;53.304;-6.284;2023-11-18T01:35:03;1.17;;;0.63;;
42632;SDS011;28261;53.304;-6.284;2023-11-18T01:37:06;0.95;;;0.40;;
42632;SDS011;28261;53.304;-6.284;2023-11-18T01:39:11;1.02;;;0.47;;
42632;SDS011;28261;53.304;-6.284;2023-11-18T01:41:15;1.92;;;0.30;;
42632;SDS011;28261;53.304;-6.284;2023-11-18T01:43:20;0.40;;;0.20;;
42632;SDS011;28261;53.304;-6.284;2023-11-18T01:45:25;0.13;;;0.13;;
42632;SDS011;28261;53.304;-6.284;2023-11-18T01:47:30;0.28;;;0.20;;
42632;SDS011;28261;53.304;-6.284;2023-11-18T01:49:36;0.40;;;0.40;;
42632;SDS011;28261;53.304;-6.284;2023-11-18T01:51:43;0.20;;;0.20;;
42632;SDS011;28261;53.304;-6.284;2023-11-18T01:53:49;0.25;;;0.20;;
42632;SDS011;28261;53.304;-6.284;2023-11-18T01:55:53;0.30;;;0.22;;
42632;SDS011;28261;53.304;-6.284;2023-11-18T01:57:58;0.10;;;0.10;;
42632;SDS011;28261;53.304;-6.284;2023-11-18T02:00:07;0.10;;;0.10;;
42632;SDS011;28261;53.304;-6.284;2023-11-18T02:02:17;0.30;;;0.30;;
42632;SDS011;28261;53.304;-6.284;2023-11-18T02:04:23;0.20;;;0.20;;
42632;SDS011;28261;53.304;-6.284;2023-11-18T02:06:27;1.38;;;0.40;;
42632;SDS011;28261;53.304;-6.284;2023-11-18T02:08:30;0.30;;;0.30;;
42632;SDS011;28261;53.304;-6.284;2023-11-18T02:10:37;0.22;;;0.22;;
42632;SDS011;28261;53.304;-6.284;2023-11-18T02:12:53;0.40;;;0.40;;
42632;SDS011;28261;53.304;-6.284;2023-11-18T02:15:04;0.13;;;0.13;;
42632;SDS011;28261;53.304;-6.284;2023-11-18T02:17:14;0.22;;;0.22;;
42632;SDS011;28261;53.304;-6.284;2023-11-18T02:19:26;0.28;;;0.20;;
42632;SDS011;28261;53.304;-6.284;2023-11-18T02:21:32;0.30;;;0.22;;
42632;SDS011;28261;53.304;-6.284;2023-11-18T02:23:36;0.20;;;0.20;;
42632;SDS011;28261;53.304;-6.284;2023-11-18T02:25:44;0.22;;;0.22;;
42632;SDS011;28261;53.304;-6.284;2023-11-18T02:27:49;0.20;;;0.20;;
42632;SDS011;28261;53.304;-6.284;2023-11-18T02:29:54;0.32;;;0.32;;
42632;SDS011;28261;53.304;-6.284;2023-11-18T02:32:04;0.10;;;0.10;;
42632;SDS011;28261;53.304;-6.284;2023-11-18T02:34:15;0.22;;;0.22;;
42632;SDS011;28261;53.304;-6.284;2023-11-18T02:36:26;0.50;;;0.50;;
42632;SDS011;28261;53.304;-6.284;2023-11-18T02:38:39;0.17;;;0.17;;
42632;SDS011;28261;53.304;-6.284;2023-11-18T02:40:50;0.22;;;0.22;;
42632;SDS011;28261;53.304;-6.284;2023-11-18T02:42:59;0.32;;;0.32;;
42632;SDS011;28261;53.304;-6.284;2023-11-18T02:45:07;0.30;;;0.20;;
42632;SDS011;28261;53.304;-6.284;2023-11-18T02:47:14;0.28;;;0.20;;
42632;SDS011;28261;53.304;-6.284;2023-11-18T02:49:19;0.45;;;0.45;;
42632;SDS011;28261;53.304;-6.284;2023-11-18T02:51:23;0.43;;;0.43;;
42632;SDS011;28261;53.304;-6.284;2023-11-18T02:53:28;0.30;;;0.30;;
42632;SDS011;28261;53.304;-6.284;2023-11-18T02:55:32;0.47;;;0.40;;
42632;SDS011;28261;53.304;-6.284;2023-11-18T02:57:38;0.38;;;0.38;;
42632;SDS011;28261;53.304;-6.284;2023-11-18T02:59:42;0.30;;;0.30;;
42632;SDS011;28261;53.304;-6.284;2023-11-18T03:01:49;0.60;;;0.25;;
42632;SDS011;28261;53.304;-6.284;2023-11-18T03:03:58;0.73;;;0.20;;
42632;SDS011;28261;53.304;-6.284;2023-11-18T03:06:01;0.32;;;0.32;;
42632;SDS011;28261;53.304;-6.284;2023-11-18T03:08:08;0.22;;;0.22;;
42632;SDS011;28261;53.304;-6.284;2023-11-18T03:10:12;0.43;;;0.43;;
42632;SDS011;28261;53.304;-6.284;2023-11-18T03:12:23;0.30;;;0.20;;
42632;SDS011;28261;53.304;-6.284;2023-11-18T03:14:31;0.32;;;0.32;;
42632;SDS011;28261;53.304;-6.284;2023-11-18T03:16:36;2.08;;;0.30;;
42632;SDS011;28261;53.304;-6.284;2023-11-18T03:18:42;0.52;;;0.32;;
42632;SDS011;28261;53.304;-6.284;2023-11-18T03:20:46;0.20;;;0.20;;
42632;SDS011;28261;53.304;-6.284;2023-11-18T03:22:51;0.22;;;0.22;;
42632;SDS011;28261;53.304;-6.284;2023-11-18T03:24:54;0.30;;;0.30;;
42632;SDS011;28261;53.304;-6.284;2023-11-18T03:26:58;0.57;;;0.47;;
42632;SDS011;28261;53.304;-6.284;2023-11-18T03:29:02;0.47;;;0.35;;
42632;SDS011;28261;53.304;-6.284;2023-11-18T03:31:08;0.20;;;0.20;;
42632;SDS011;28261;53.304;-6.284;2023-11-18T03:33:13;0.30;;;0.30;;
42632;SDS011;28261;53.304;-6.284;2023-11-18T03:35:17;0.55;;;0.55;;
42632;SDS011;28261;53.304;-6.284;2023-11-18T03:37:21;0.40;;;0.40;;
42632;SDS011;28261;53.304;-6.284;2023-11-18T03:39:25;0.52;;;0.32;;
42632;SDS011;28261;53.304;-6.284;2023-11-18T03:41:30;0.32;;;0.32;;
42632;SDS011;28261;53.304;-6.284;2023-11-18T03:43:34;0.43;;;0.30;;
42632;SDS011;28261;53.304;-6.284;2023-11-18T03:45:38;1.23;;;0.43;;
42632;SDS011;28261;53.304;-6.284;2023-11-18T03:47:43;0.50;;;0.43;;
42632;SDS011;28261;53.304;-6.284;2023-11-18T03:49:49;0.82;;;0.43;;
42632;SDS011;28261;53.304;-6.284;2023-11-18T03:51:57;0.40;;;0.40;;
42632;SDS011;28261;53.304;-6.284;2023-11-18T03:54:01;1.08;;;0.45;;
42632;SDS011;28261;53.304;-6.284;2023-11-18T03:56:05;0.43;;;0.43;;
42632;SDS011;28261;53.304;-6.284;2023-11-18T04:00:15;0.82;;;0.32;;
42632;SDS011;28261;53.304;-6.284;2023-11-18T04:02:19;0.65;;;0.20;;
42632;SDS011;28261;53.304;-6.284;2023-11-18T04:04:25;1.27;;;0.32;;
42632;SDS011;28261;53.304;-6.284;2023-11-18T04:06:29;0.38;;;0.38;;
42632;SDS011;28261;53.304;-6.284;2023-11-18T04:08:33;0.93;;;0.50;;
42632;SDS011;28261;53.304;-6.284;2023-11-18T04:10:37;1.23;;;0.50;;
42632;SDS011;28261;53.304;-6.284;2023-11-18T04:12:41;1.35;;;0.55;;
42632;SDS011;28261;53.304;-6.284;2023-11-18T04:14:48;0.82;;;0.40;;
42632;SDS011;28261;53.304;-6.284;2023-11-18T04:16:52;0.45;;;0.30;;
42632;SDS011;28261;53.304;-6.284;2023-11-18T04:18:58;0.25;;;0.25;;
42632;SDS011;28261;53.304;-6.284;2023-11-18T04:21:04;1.95;;;0.43;;
42632;SDS011;28261;53.304;-6.284;2023-11-18T04:23:08;1.75;;;0.28;;
42632;SDS011;28261;53.304;-6.284;2023-11-18T04:25:13;0.93;;;0.40;;
42632;SDS011;28261;53.304;-6.284;2023-11-18T04:27:16;2.55;;;0.50;;
42632;SDS011;28261;53.304;-6.284;2023-11-18T04:29:20;1.83;;;0.65;;
42632;SDS011;28261;53.304;-6.284;2023-11-18T04:31:25;0.93;;;0.45;;
42632;SDS011;28261;53.304;-6.284;2023-11-18T04:33:29;1.20;;;0.30;;
42632;SDS011;28261;53.304;-6.284;2023-11-18T04:35:33;0.52;;;0.52;;
42632;SDS011;28261;53.304;-6.284;2023-11-18T04:37:39;1.33;;;0.50;;
42632;SDS011;28261;53.304;-6.284;2023-11-18T04:39:45;1.08;;;0.70;;
42632;SDS011;28261;53.304;-6.284;2023-11-18T04:41:49;0.55;;;0.47;;
42632;SDS011;28261;53.304;-6.284;2023-11-18T04:43:53;1.05;;;0.40;;
42632;SDS011;28261;53.304;-6.284;2023-11-18T04:45:56;1.90;;;0.40;;
42632;SDS011;28261;53.304;-6.284;2023-11-18T04:47:59;1.88;;;0.60;;
42632;SDS011;28261;53.304;-6.284;2023-11-18T04:50:04;0.50;;;0.40;;
42632;SDS011;28261;53.304;-6.284;2023-11-18T04:52:10;1.25;;;0.50;;
42632;SDS011;28261;53.304;-6.284;2023-11-18T04:54:15;0.93;;;0.40;;
42632;SDS011;28261;53.304;-6.284;2023-11-18T04:56:19;0.57;;;0.30;;
42632;SDS011;28261;53.304;-6.284;2023-11-18T04:58:23;1.42;;;0.60;;
42632;SDS011;28261;53.304;-6.284;2023-11-18T05:00:27;1.20;;;0.52;;
42632;SDS011;28261;53.304;-6.284;2023-11-18T05:02:31;0.85;;;0.30;;
42632;SDS011;28261;53.304;-6.284;2023-11-18T05:04:36;1.00;;;0.75;;
42632;SDS011;28261;53.304;-6.284;2023-11-18T05:06:41;1.77;;;0.45;;
42632;SDS011;28261;53.304;-6.284;2023-11-18T05:08:45;0.98;;;0.60;;
42632;SDS011;28261;53.304;-6.284;2023-11-18T05:10:50;1.58;;;0.52;;
42632;SDS011;28261;53.304;-6.284;2023-11-18T05:12:54;1.30;;;0.35;;
42632;SDS011;28261;53.304;-6.284;2023-11-18T05:14:58;1.00;;;0.43;;
42632;SDS011;28261;53.304;-6.284;2023-11-18T05:17:02;2.83;;;0.52;;
42632;SDS011;28261;53.304;-6.284;2023-11-18T05:19:06;0.50;;;0.30;;
42632;SDS011;28261;53.304;-6.284;2023-11-18T05:21:10;1.25;;;0.50;;
42632;SDS011;28261;53.304;-6.284;2023-11-18T05:23:14;2.60;;;0.47;;
42632;SDS011;28261;53.304;-6.284;2023-11-18T05:25:18;1.45;;;0.50;;
42632;SDS011;28261;53.304;-6.284;2023-11-18T05:27:24;0.63;;;0.43;;
42632;SDS011;28261;53.304;-6.284;2023-11-18T05:29:28;0.77;;;0.43;;
42632;SDS011;28261;53.304;-6.284;2023-11-18T05:31:32;2.00;;;0.57;;
42632;SDS011;28261;53.304;-6.284;2023-11-18T05:33:36;7.25;;;0.77;;
42632;SDS011;28261;53.304;-6.284;2023-11-18T05:35:40;1.55;;;0.50;;
42632;SDS011;28261;53.304;-6.284;2023-11-18T05:37:50;2.85;;;0.80;;
42632;SDS011;28261;53.304;-6.284;2023-11-18T05:39:56;4.18;;;0.77;;
42632;SDS011;28261;53.304;-6.284;2023-11-18T05:42:07;5.00;;;0.90;;
42632;SDS011;28261;53.304;-6.284;2023-11-18T05:44:14;2.83;;;0.57;;
42632;SDS011;28261;53.304;-6.284;2023-11-18T05:46:21;4.45;;;1.00;;
42632;SDS011;28261;53.304;-6.284;2023-11-18T05:48:26;4.07;;;0.90;;
42632;SDS011;28261;53.304;-6.284;2023-11-18T05:50:30;4.80;;;1.05;;
42632;SDS011;28261;53.304;-6.284;2023-11-18T05:52:34;4.93;;;0.93;;
42632;SDS011;28261;53.304;-6.284;2023-11-18T05:54:38;8.20;;;1.30;;
42632;SDS011;28261;53.304;-6.284;2023-11-18T05:56:41;5.68;;;0.90;;
42632;SDS011;28261;53.304;-6.284;2023-11-18T05:58:45;8.40;;;1.13;;
42632;SDS011;28261;53.304;-6.284;2023-11-18T06:00:49;5.57;;;1.23;;
42632;SDS011;28261;53.304;-6.284;2023-11-18T06:02:53;3.53;;;1.00;;
42632;SDS011;28261;53.304;-6.284;2023-11-18T06:04:56;3.83;;;0.80;;
42632;SDS011;28261;53.304;-6.284;2023-11-18T06:07:00;9.98;;;1.65;;
42632;SDS011;28261;53.304;-6.284;2023-11-18T06:09:04;3.47;;;1.35;;
42632;SDS011;28261;53.304;-6.284;2023-11-18T06:11:11;7.32;;;0.88;;
42632;SDS011;28261;53.304;-6.284;2023-11-18T06:13:18;6.18;;;1.40;;
42632;SDS011;28261;53.304;-6.284;2023-11-18T06:15:22;9.50;;;1.40;;
42632;SDS011;28261;53.304;-6.284;2023-11-18T06:17:27;6.38;;;1.10;;
42632;SDS011;28261;53.304;-6.284;2023-11-18T06:19:31;3.22;;;0.88;;
42632;SDS011;28261;53.304;-6.284;2023-11-18T06:21:34;8.07;;;1.25;;
42632;SDS011;28261;53.304;-6.284;2023-11-18T06:23:38;6.85;;;1.23;;
42632;SDS011;28261;53.304;-6.284;2023-11-18T06:25:41;5.45;;;1.02;;
42632;SDS011;28261;53.304;-6.284;2023-11-18T06:27:45;7.45;;;1.13;;
42632;SDS011;28261;53.304;-6.284;2023-11-18T06:29:49;9.07;;;1.48;;
42632;SDS011;28261;53.304;-6.284;2023-11-18T06:31:56;6.15;;;1.42;;
42632;SDS011;28261;53.304;-6.284;2023-11-18T06:34:02;5.32;;;1.13;;
42632;SDS011;28261;53.304;-6.284;2023-11-18T06:36:06;5.50;;;1.13;;
42632;SDS011;28261;53.304;-6.284;2023-11-18T06:38:10;9.35;;;1.10;;
42632;SDS011;28261;53.304;-6.284;2023-11-18T06:40:15;7.20;;;1.27;;
42632;SDS011;28261;53.304;-6.284;2023-11-18T06:42:24;10.82;;;1.45;;
42632;SDS011;28261;53.304;-6.284;2023-11-18T06:44:26;6.80;;;1.48;;
42632;SDS011;28261;53.304;-6.284;2023-11-18T06:46:31;6.78;;;2.00;;
42632;SDS011;28261;53.304;-6.284;2023-11-18T06:48:36;5.60;;;0.90;;
42632;SDS011;28261;53.304;-6.284;2023-11-18T06:50:42;9.77;;;2.20;;
42632;SDS011;28261;53.304;-6.284;2023-11-18T06:52:46;6.75;;;1.25;;
42632;SDS011;28261;53.304;-6.284;2023-11-18T06:54:50;7.70;;;1.17;;
42632;SDS011;28261;53.304;-6.284;2023-11-18T06:56:56;5.22;;;0.95;;
42632;SDS011;28261;53.304;-6.284;2023-11-18T06:58:59;6.50;;;1.35;;
42632;SDS011;28261;53.304;-6.284;2023-11-18T07:01:03;13.15;;;1.25;;
42632;SDS011;28261;53.304;-6.284;2023-11-18T07:03:08;6.50;;;1.15;;
42632;SDS011;28261;53.304;-6.284;2023-11-18T07:05:10;3.75;;;1.08;;
42632;SDS011;28261;53.304;-6.284;2023-11-18T07:07:18;6.70;;;1.48;;
42632;SDS011;28261;53.304;-6.284;2023-11-18T07:09:22;10.43;;;1.73;;
42632;SDS011;28261;53.304;-6.284;2023-11-18T07:11:27;8.13;;;1.42;;
42632;SDS011;28261;53.304;-6.284;2023-11-18T07:13:30;6.10;;;1.25;;
42632;SDS011;28261;53.304;-6.284;2023-11-18T07:15:35;10.02;;;2.05;;
42632;SDS011;28261;53.304;-6.284;2023-11-18T07:17:39;7.85;;;1.50;;
42632;SDS011;28261;53.304;-6.284;2023-11-18T07:19:43;6.38;;;2.00;;
42632;SDS011;28261;53.304;-6.284;2023-11-18T07:21:46;6.90;;;1.80;;
42632;SDS011;28261;53.304;-6.284;2023-11-18T07:23:52;9.43;;;1.55;;
42632;SDS011;28261;53.304;-6.284;2023-11-18T07:30:03;8.55;;;1.42;;
42632;SDS011;28261;53.304;-6.284;2023-11-18T07:32:11;5.03;;;1.30;;
42632;SDS011;28261;53.304;-6.284;2023-11-18T07:34:15;9.25;;;1.40;;
42632;SDS011;28261;53.304;-6.284;2023-11-18T07:36:19;10.15;;;1.58;;
42632;SDS011;28261;53.304;-6.284;2023-11-18T07:38:23;13.27;;;1.40;;
42632;SDS011;28261;53.304;-6.284;2023-11-18T07:40:29;11.15;;;1.15;;
42632;SDS011;28261;53.304;-6.284;2023-11-18T07:42:35;9.32;;;2.15;;
42632;SDS011;28261;53.304;-6.284;2023-11-18T07:44:39;10.27;;;1.80;;
42632;SDS011;28261;53.304;-6.284;2023-11-18T07:46:43;9.00;;;1.30;;
42632;SDS011;28261;53.304;-6.284;2023-11-18T07:48:47;10.82;;;1.63;;
42632;SDS011;28261;53.304;-6.284;2023-11-18T07:50:50;10.10;;;1.83;;
42632;SDS011;28261;53.304;-6.284;2023-11-18T07:52:54;12.52;;;2.08;;
42632;SDS011;28261;53.304;-6.284;2023-11-18T07:54:58;13.65;;;1.60;;
42632;SDS011;28261;53.304;-6.284;2023-11-18T07:57:04;12.00;;;1.90;;
42632;SDS011;28261;53.304;-6.284;2023-11-18T07:59:12;10.65;;;2.00;;
42632;SDS011;28261;53.304;-6.284;2023-11-18T08:01:18;12.82;;;1.88;;
42632;SDS011;28261;53.304;-6.284;2023-11-18T08:03:23;12.63;;;1.92;;
42632;SDS011;28261;53.304;-6.284;2023-11-18T08:05:27;10.27;;;1.55;;
42632;SDS011;28261;53.304;-6.284;2023-11-18T08:07:33;10.50;;;1.63;;
42632;SDS011;28261;53.304;-6.284;2023-11-18T08:09:38;7.47;;;1.35;;
42632;SDS011;28261;53.304;-6.284;2023-11-18T08:11:40;13.82;;;1.90;;
42632;SDS011;28261;53.304;-6.284;2023-11-18T08:13:46;11.68;;;1.58;;
42632;SDS011;28261;53.304;-6.284;2023-11-18T08:15:49;8.05;;;1.50;;
42632;SDS011;28261;53.304;-6.284;2023-11-18T08:17:52;12.30;;;1.75;;
42632;SDS011;28261;53.304;-6.284;2023-11-18T08:19:56;9.02;;;3.47;;
42632;SDS011;28261;53.304;-6.284;2023-11-18T08:22:01;10.48;;;1.77;;
42632;SDS011;28261;53.304;-6.284;2023-11-18T08:24:06;11.75;;;1.60;;
42632;SDS011;28261;53.304;-6.284;2023-11-18T08:28:14;8.65;;;1.45;;
42632;SDS011;28261;53.304;-6.284;2023-11-18T08:30:19;7.18;;;1.45;;
42632;SDS011;28261;53.304;-6.284;2023-11-18T08:32:22;11.48;;;1.80;;
42632;SDS011;28261;53.304;-6.284;2023-11-18T08:34:26;9.70;;;1.30;;
42632;SDS011;28261;53.304;-6.284;2023-11-18T08:36:30;9.60;;;1.80;;
42632;SDS011;28261;53.304;-6.284;2023-11-18T08:38:35;12.00;;;2.85;;
42632;SDS011;28261;53.304;-6.284;2023-11-18T08:40:39;9.23;;;1.55;;
42632;SDS011;28261;53.304;-6.284;2023-11-18T08:42:45;9.40;;;2.08;;
42632;SDS011;28261;53.304;-6.284;2023-11-18T08:44:52;7.80;;;1.58;;
42632;SDS011;28261;53.304;-6.284;2023-11-18T08:46:58;8.07;;;1.80;;
42632;SDS011;28261;53.304;-6.284;2023-11-18T08:49:01;12.50;;;1.77;;
42632;SDS011;28261;53.304;-6.284;2023-11-18T08:51:12;12.57;;;6.47;;
42632;SDS011;28261;53.304;-6.284;2023-11-18T08:53:18;13.05;;;3.05;;
42632;SDS011;28261;53.304;-6.284;2023-11-18T08:55:28;9.13;;;1.83;;
42632;SDS011;28261;53.304;-6.284;2023-11-18T08:57:46;10.80;;;1.92;;
42632;SDS011;28261;53.304;-6.284;2023-11-18T09:00:01;7.30;;;1.35;;
42632;SDS011;28261;53.304;-6.284;2023-11-18T09:02:12;12.60;;;1.75;;
42632;SDS011;28261;53.304;-6.284;2023-11-18T09:04:17;12.88;;;1.50;;
42632;SDS011;28261;53.304;-6.284;2023-11-18T09:06:22;12.48;;;1.67;;
42632;SDS011;28261;53.304;-6.284;2023-11-18T09:08:31;12.00;;;1.55;;
42632;SDS011;28261;53.304;-6.284;2023-11-18T09:10:37;13.80;;;1.90;;
42632;SDS011;28261;53.304;-6.284;2023-11-18T09:12:40;10.65;;;1.50;;
42632;SDS011;28261;53.304;-6.284;2023-11-18T09:14:47;8.77;;;1.50;;
42632;SDS011;28261;53.304;-6.284;2023-11-18T09:16:54;7.63;;;1.27;;
42632;SDS011;28261;53.304;-6.284;2023-11-18T09:19:02;9.77;;;1.83;;
42632;SDS011;28261;53.304;-6.284;2023-11-18T09:21:08;12.88;;;2.80;;
42632;SDS011;28261;53.304;-6.284;2023-11-18T09:23:17;10.80;;;2.20;;
42632;SDS011;28261;53.304;-6.284;2023-11-18T09:25:21;16.38;;;2.47;;
42632;SDS011;28261;53.304;-6.284;2023-11-18T09:27:25;10.80;;;1.55;;
42632;SDS011;28261;53.304;-6.284;2023-11-18T09:29:31;12.25;;;2.00;;
42632;SDS011;28261;53.304;-6.284;2023-11-18T09:31:36;12.32;;;1.60;;
42632;SDS011;28261;53.304;-6.284;2023-11-18T09:33:40;11.95;;;1.98;;
42632;SDS011;28261;53.304;-6.284;2023-11-18T09:35:50;14.65;;;2.08;;
42632;SDS011;28261;53.304;-6.284;2023-11-18T09:37:54;10.88;;;1.55;;
42632;SDS011;28261;53.304;-6.284;2023-11-18T09:39:57;10.82;;;1.80;;
42632;SDS011;28261;53.304;-6.284;2023-11-18T09:42:13;12.65;;;2.05;;
42632;SDS011;28261;53.304;-6.284;2023-11-18T09:44:21;11.68;;;2.50;;
42632;SDS011;28261;53.304;-6.284;2023-11-18T09:46:25;10.20;;;2.10;;
42632;SDS011;28261;53.304;-6.284;2023-11-18T09:48:35;9.77;;;1.70;;
42632;SDS011;28261;53.304;-6.284;2023-11-18T09:50:43;10.57;;;1.95;;
42632;SDS011;28261;53.304;-6.284;2023-11-18T09:52:52;16.17;;;2.95;;
42632;SDS011;28261;53.304;-6.284;2023-11-18T09:57:07;13.65;;;1.70;;
42632;SDS011;28261;53.304;-6.284;2023-11-18T09:59:18;12.38;;;1.77;;
42632;SDS011;28261;53.304;-6.284;2023-11-18T10:01:26;11.77;;;1.63;;
42632;SDS011;28261;53.304;-6.284;2023-11-18T10:03:34;11.07;;;1.83;;
42632;SDS011;28261;53.304;-6.284;2023-11-18T10:05:40;12.18;;;1.40;;
42632;SDS011;28261;53.304;-6.284;2023-11-18T10:07:44;13.30;;;1.77;;
42632;SDS011;28261;53.304;-6.284;2023-11-18T10:09:50;13.27;;;2.25;;
42632;SDS011;28261;53.304;-6.284;2023-11-18T10:11:59;9.18;;;1.65;;
42632;SDS011;28261;53.304;-6.284;2023-11-18T10:14:07;9.27;;;1.77;;
42632;SDS011;28261;53.304;-6.284;2023-11-18T10:16:12;11.65;;;2.10;;
42632;SDS011;28261;53.304;-6.284;2023-11-18T10:18:16;18.95;;;1.80;;
42632;SDS011;28261;53.304;-6.284;2023-11-18T10:20:43;10.55;;;2.10;;
42632;SDS011;28261;53.304;-6.284;2023-11-18T10:22:47;8.25;;;2.20;;
42632;SDS011;28261;53.304;-6.284;2023-11-18T10:24:53;12.48;;;2.00;;
42632;SDS011;28261;53.304;-6.284;2023-11-18T10:26:57;17.58;;;1.45;;
42632;SDS011;28261;53.304;-6.284;2023-11-18T10:29:02;12.13;;;2.15;;
42632;SDS011;28261;53.304;-6.284;2023-11-18T10:31:09;17.48;;;1.88;;
42632;SDS011;28261;53.304;-6.284;2023-11-18T10:33:22;10.48;;;1.88;;
42632;SDS011;28261;53.304;-6.284;2023-11-18T10:35:28;13.10;;;1.85;;
42632;SDS011;28261;53.304;-6.284;2023-11-18T10:37:32;16.48;;;1.67;;
42632;SDS011;28261;53.304;-6.284;2023-11-18T10:39:41;13.95;;;2.17;;
42632;SDS011;28261;53.304;-6.284;2023-11-18T10:41:54;10.48;;;1.88;;
42632;SDS011;28261;53.304;-6.284;2023-11-18T10:44:06;11.70;;;1.77;;
42632;SDS011;28261;53.304;-6.284;2023-11-18T10:46:17;9.35;;;1.55;;
42632;SDS011;28261;53.304;-6.284;2023-11-18T10:48:23;18.48;;;2.38;;
42632;SDS011;28261;53.304;-6.284;2023-11-18T10:50:26;10.43;;;1.40;;
42632;SDS011;28261;53.304;-6.284;2023-11-18T10:52:34;12.30;;;2.13;;
42632;SDS011;28261;53.304;-6.284;2023-11-18T10:54:49;11.40;;;1.90;;
42632;SDS011;28261;53.304;-6.284;2023-11-18T10:56:57;11.25;;;1.90;;
42632;SDS011;28261;53.304;-6.284;2023-11-18T10:59:10;8.35;;;1.63;;
42632;SDS011;28261;53.304;-6.284;2023-11-18T11:01:26;13.98;;;2.13;;
42632;SDS011;28261;53.304;-6.284;2023-11-18T11:03:31;14.30;;;2.33;;
42632;SDS011;28261;53.304;-6.284;2023-11-18T11:05:35;12.20;;;1.67;;
42632;SDS011;28261;53.304;-6.284;2023-11-18T11:07:41;8.10;;;1.33;;
42632;SDS011;28261;53.304;-6.284;2023-11-18T11:09:46;8.65;;;1.70;;
42632;SDS011;28261;53.304;-6.284;2023-11-18T11:11:52;9.32;;;1.35;;
42632;SDS011;28261;53.304;-6.284;2023-11-18T11:14:00;11.00;;;1.30;;
42632;SDS011;28261;53.304;-6.284;2023-11-18T11:16:07;8.70;;;1.27;;
42632;SDS011;28261;53.304;-6.284;2023-11-18T11:18:18;9.65;;;1.40;;
42632;SDS011;28261;53.304;-6.284;2023-11-18T11:20:31;12.65;;;1.88;;
42632;SDS011;28261;53.304;-6.284;2023-11-18T11:22:46;10.25;;;1.38;;
42632;SDS011;28261;53.304;-6.284;2023-11-18T11:24:59;9.25;;;1.35;;
42632;SDS011;28261;53.304;-6.284;2023-11-18T11:27:14;11.00;;;1.33;;
42632;SDS011;28261;53.304;-6.284;2023-11-18T11:29:35;9.95;;;1.48;;
42632;SDS011;28261;53.304;-6.284;2023-11-18T11:31:46;8.77;;;1.55;;
42632;SDS011;28261;53.304;-6.284;2023-11-18T11:33:59;13.90;;;2.13;;
42632;SDS011;28261;53.304;-6.284;2023-11-18T11:36:09;6.82;;;2.05;;
42632;SDS011;28261;53.304;-6.284;2023-11-18T11:38:18;14.93;;;2.13;;
42632;SDS011;28261;53.304;-6.284;2023-11-18T11:40:22;10.52;;;2.35;;
42632;SDS011;28261;53.304;-6.284;2023-11-18T11:42:25;9.90;;;1.42;;
42632;SDS011;28261;53.304;-6.284;2023-11-18T11:44:29;11.48;;;1.58;;
42632;SDS011;28261;53.304;-6.284;2023-11-18T11:46:41;10.73;;;1.52;;
42632;SDS011;28261;53.304;-6.284;2023-11-18T11:48:46;12.13;;;2.40;;
42632;SDS011;28261;53.304;-6.284;2023-11-18T11:50:55;11.95;;;1.70;;
42632;SDS011;28261;53.304;-6.284;2023-11-18T11:53:07;9.05;;;2.13;;
42632;SDS011;28261;53.304;-6.284;2023-11-18T11:55:19;12.32;;;2.03;;
42632;SDS011;28261;53.304;-6.284;2023-11-18T11:57:30;11.85;;;1.42;;
42632;SDS011;28261;53.304;-6.284;2023-11-18T12:02:00;8.13;;;1.40;;
42632;SDS011;28261;53.304;-6.284;2023-11-18T12:04:09;9.50;;;1.45;;
42632;SDS011;28261;53.304;-6.284;2023-11-18T12:06:22;4.03;;;1.05;;
42632;SDS011;28261;53.304;-6.284;2023-11-18T12:08:28;5.90;;;1.20;;
42632;SDS011;28261;53.304;-6.284;2023-11-18T12:10:31;7.75;;;1.38;;
42632;SDS011;28261;53.304;-6.284;2023-11-18T12:12:37;9.82;;;1.70;;
42632;SDS011;28261;53.304;-6.284;2023-11-18T12:14:53;3.42;;;0.93;;
42632;SDS011;28261;53.304;-6.284;2023-11-18T12:17:02;7.38;;;1.40;;
42632;SDS011;28261;53.304;-6.284;2023-11-18T12:19:30;5.88;;;0.65;;
42632;SDS011;28261;53.304;-6.284;2023-11-18T12:21:53;7.55;;;1.83;;
42632;SDS011;28261;53.304;-6.284;2023-11-18T12:24:16;8.30;;;1.38;;
42632;SDS011;28261;53.304;-6.284;2023-11-18T12:26:39;9.95;;;1.40;;
42632;SDS011;28261;53.304;-6.284;2023-11-18T12:28:45;4.93;;;1.35;;
42632;SDS011;28261;53.304;-6.284;2023-11-18T12:30:49;10.48;;;1.85;;
42632;SDS011;28261;53.304;-6.284;2023-11-18T12:32:59;12.73;;;1.80;;
42632;SDS011;28261;53.304;-6.284;2023-11-18T12:35:07;12.60;;;2.72;;
42632;SDS011;28261;53.304;-6.284;2023-11-18T12:37:28;9.32;;;1.35;;
42632;SDS011;28261;53.304;-6.284;2023-11-18T12:42:56;11.88;;;1.75;;